sensor_id;sensor_type;location;lat;lon;timestamp;temperature;humidity
19279;DHT22;9773;47.062;15.446;2023-06-22T00:01:18;21.30;99.90
19279;DHT22;9773;47.062;15.446;2023-06-22T00:03:44;21.20;99.90
19279;DHT22;9773;47.062;15.446;2023-06-22T00:06:10;21.20;99.90
19279;DHT22;9773;47.062;15.446;2023-06-22T00:08:35;21.20;99.90
19279;DHT22;9773;47.062;15.446;2023-06-22T00:11:01;21.10;99.90
19279;DHT22;9773;47.062;15.446;2023-06-22T00:13:27;21.10;99.90
19279;DHT22;9773;47.062;15.446;2023-06-22T00:15:53;21.10;99.90
19279;DHT22;9773;47.062;15.446;2023-06-22T00:18:18;21.10;99.90
19279;DHT22;9773;47.062;15.446;2023-06-22T00:20:44;21.10;99.90
19279;DHT22;9773;47.062;15.446;2023-06-22T00:23:11;21.00;99.90
19279;DHT22;9773;47.062;15.446;2023-06-22T00:25:38;21.10;99.90
19279;DHT22;9773;47.062;15.446;2023-06-22T00:28:06;21.00;99.90
19279;DHT22;9773;47.062;15.446;2023-06-22T00:30:33;20.90;99.90
19279;DHT22;9773;47.062;15.446;2023-06-22T00:33:00;20.90;99.90
19279;DHT22;9773;47.062;15.446;2023-06-22T00:35:26;20.90;99.90
19279;DHT22;9773;47.062;15.446;2023-06-22T00:37:55;20.90;99.90
19279;DHT22;9773;47.062;15.446;2023-06-22T00:40:29;20.90;99.90
19279;DHT22;9773;47.062;15.446;2023-06-22T00:42:55;20.80;99.90
19279;DHT22;9773;47.062;15.446;2023-06-22T00:45:24;20.80;99.90
19279;DHT22;9773;47.062;15.446;2023-06-22T00:47:52;20.90;99.90
19279;DHT22;9773;47.062;15.446;2023-06-22T00:50:23;20.90;99.90
19279;DHT22;9773;47.062;15.446;2023-06-22T00:52:58;20.80;99.90
19279;DHT22;9773;47.062;15.446;2023-06-22T00:55:25;20.70;99.90
19279;DHT22;9773;47.062;15.446;2023-06-22T00:57:54;20.80;99.90
19279;DHT22;9773;47.062;15.446;2023-06-22T01:00:23;20.70;99.90
19279;DHT22;9773;47.062;15.446;2023-06-22T01:02:51;20.70;99.90
19279;DHT22;9773;47.062;15.446;2023-06-22T01:05:21;20.60;99.90
19279;DHT22;9773;47.062;15.446;2023-06-22T01:13:29;20.50;99.90
19279;DHT22;9773;47.062;15.446;2023-06-22T01:16:02;20.40;99.90
19279;DHT22;9773;47.062;15.446;2023-06-22T01:18:30;20.50;99.90
19279;DHT22;9773;47.062;15.446;2023-06-22T01:20:57;20.50;99.90
19279;DHT22;9773;47.062;15.446;2023-06-22T01:26:11;20.60;99.90
19279;DHT22;9773;47.062;15.446;2023-06-22T01:28:50;20.50;99.90
19279;DHT22;9773;47.062;15.446;2023-06-22T01:31:19;20.60;99.90
19279;DHT22;9773;47.062;15.446;2023-06-22T01:33:50;20.60;99.90
19279;DHT22;9773;47.062;15.446;2023-06-22T01:36:17;20.60;99.90
19279;DHT22;9773;47.062;15.446;2023-06-22T01:38:44;20.60;99.90
19279;DHT22;9773;47.062;15.446;2023-06-22T01:41:12;20.60;99.90
19279;DHT22;9773;47.062;15.446;2023-06-22T01:43:38;20.60;99.90
19279;DHT22;9773;47.062;15.446;2023-06-22T01:46:04;20.60;99.90
19279;DHT22;9773;47.062;15.446;2023-06-22T01:48:31;20.60;99.90
19279;DHT22;9773;47.062;15.446;2023-06-22T01:50:57;20.60;99.90
19279;DHT22;9773;47.062;15.446;2023-06-22T01:53:24;20.60;99.90
19279;DHT22;9773;47.062;15.446;2023-06-22T01:55:50;20.60;99.90
19279;DHT22;9773;47.062;15.446;2023-06-22T01:58:16;20.50;99.90
19279;DHT22;9773;47.062;15.446;2023-06-22T02:03:35;20.60;99.90
19279;DHT22;9773;47.062;15.446;2023-06-22T02:06:08;20.60;99.90
19279;DHT22;9773;47.062;15.446;2023-06-22T02:08:41;20.60;99.90
19279;DHT22;9773;47.062;15.446;2023-06-22T02:11:12;20.60;99.90
19279;DHT22;9773;47.062;15.446;2023-06-22T02:13:40;20.50;99.90
19279;DHT22;9773;47.062;15.446;2023-06-22T02:16:11;20.40;99.90
19279;DHT22;9773;47.062;15.446;2023-06-22T02:18:37;20.40;99.90
19279;DHT22;9773;47.062;15.446;2023-06-22T02:21:06;20.40;99.90
19279;DHT22;9773;47.062;15.446;2023-06-22T02:23:32;20.30;99.90
19279;DHT22;9773;47.062;15.446;2023-06-22T02:26:01;20.30;99.90
19279;DHT22;9773;47.062;15.446;2023-06-22T02:28:27;20.40;99.90
19279;DHT22;9773;47.062;15.446;2023-06-22T02:30:53;20.40;99.90
19279;DHT22;9773;47.062;15.446;2023-06-22T02:33:19;20.40;99.90
19279;DHT22;9773;47.062;15.446;2023-06-22T02:35:45;20.40;99.90
19279;DHT22;9773;47.062;15.446;2023-06-22T02:38:14;20.30;99.90
19279;DHT22;9773;47.062;15.446;2023-06-22T02:40:40;20.30;99.90
19279;DHT22;9773;47.062;15.446;2023-06-22T02:43:06;20.30;99.90
19279;DHT22;9773;47.062;15.446;2023-06-22T02:45:31;20.30;99.90
19279;DHT22;9773;47.062;15.446;2023-06-22T02:47:57;20.30;99.90
19279;DHT22;9773;47.062;15.446;2023-06-22T02:50:23;20.30;99.90
19279;DHT22;9773;47.062;15.446;2023-06-22T02:52:49;20.30;99.90
19279;DHT22;9773;47.062;15.446;2023-06-22T02:55:15;20.20;99.90
19279;DHT22;9773;47.062;15.446;2023-06-22T02:57:41;20.20;99.90
19279;DHT22;9773;47.062;15.446;2023-06-22T03:00:10;20.20;99.90
19279;DHT22;9773;47.062;15.446;2023-06-22T03:02:47;20.20;99.90
19279;DHT22;9773;47.062;15.446;2023-06-22T03:05:14;20.30;99.90
19279;DHT22;9773;47.062;15.446;2023-06-22T03:07:46;20.20;99.90
19279;DHT22;9773;47.062;15.446;2023-06-22T03:10:13;20.20;99.90
19279;DHT22;9773;47.062;15.446;2023-06-22T03:12:41;20.20;99.90
19279;DHT22;9773;47.062;15.446;2023-06-22T03:15:09;20.20;99.90
19279;DHT22;9773;47.062;15.446;2023-06-22T03:17:35;20.30;99.90
19279;DHT22;9773;47.062;15.446;2023-06-22T03:20:02;20.30;99.90
19279;DHT22;9773;47.062;15.446;2023-06-22T03:22:43;20.30;99.90
19279;DHT22;9773;47.062;15.446;2023-06-22T03:25:09;20.30;99.90
19279;DHT22;9773;47.062;15.446;2023-06-22T03:27:42;20.30;99.90
19279;DHT22;9773;47.062;15.446;2023-06-22T03:30:11;20.30;99.90
19279;DHT22;9773;47.062;15.446;2023-06-22T03:32:37;20.30;99.90
19279;DHT22;9773;47.062;15.446;2023-06-22T03:35:03;20.20;99.90
19279;DHT22;9773;47.062;15.446;2023-06-22T03:37:29;20.30;99.90
19279;DHT22;9773;47.062;15.446;2023-06-22T03:39:54;20.30;99.90
19279;DHT22;9773;47.062;15.446;2023-06-22T03:42:20;20.30;99.90
19279;DHT22;9773;47.062;15.446;2023-06-22T03:44:46;20.30;99.90
19279;DHT22;9773;47.062;15.446;2023-06-22T03:47:12;20.20;99.90
19279;DHT22;9773;47.062;15.446;2023-06-22T03:49:38;20.20;99.90
19279;DHT22;9773;47.062;15.446;2023-06-22T03:52:04;20.20;99.90
19279;DHT22;9773;47.062;15.446;2023-06-22T03:54:31;20.20;99.90
19279;DHT22;9773;47.062;15.446;2023-06-22T03:56:58;20.30;99.90
19279;DHT22;9773;47.062;15.446;2023-06-22T03:59:24;20.30;99.90
19279;DHT22;9773;47.062;15.446;2023-06-22T04:01:50;20.30;99.90
19279;DHT22;9773;47.062;15.446;2023-06-22T04:04:17;20.30;99.90
19279;DHT22;9773;47.062;15.446;2023-06-22T04:06:43;20.30;99.90
19279;DHT22;9773;47.062;15.446;2023-06-22T04:09:09;20.30;99.90
19279;DHT22;9773;47.062;15.446;2023-06-22T04:11:35;20.40;99.90
19279;DHT22;9773;47.062;15.446;2023-06-22T04:14:00;20.40;99.90
19279;DHT22;9773;47.062;15.446;2023-06-22T04:16:26;20.40;99.90
19279;DHT22;9773;47.062;15.446;2023-06-22T04:18:52;20.50;99.90
19279;DHT22;9773;47.062;15.446;2023-06-22T04:21:18;20.50;99.90
19279;DHT22;9773;47.062;15.446;2023-06-22T04:23:45;20.50;99.90
19279;DHT22;9773;47.062;15.446;2023-06-22T04:26:12;20.50;99.90
19279;DHT22;9773;47.062;15.446;2023-06-22T04:28:38;20.60;99.90
19279;DHT22;9773;47.062;15.446;2023-06-22T04:31:03;20.60;99.90
19279;DHT22;9773;47.062;15.446;2023-06-22T04:33:31;20.60;99.90
19279;DHT22;9773;47.062;15.446;2023-06-22T04:35:57;20.70;99.90
19279;DHT22;9773;47.062;15.446;2023-06-22T04:38:23;20.70;99.90
19279;DHT22;9773;47.062;15.446;2023-06-22T04:40:50;20.70;99.90
19279;DHT22;9773;47.062;15.446;2023-06-22T04:43:16;20.70;99.90
19279;DHT22;9773;47.062;15.446;2023-06-22T04:45:42;20.70;99.90
19279;DHT22;9773;47.062;15.446;2023-06-22T04:48:08;20.70;99.90
19279;DHT22;9773;47.062;15.446;2023-06-22T04:50:36;20.70;99.90
19279;DHT22;9773;47.062;15.446;2023-06-22T04:53:04;20.70;99.90
19279;DHT22;9773;47.062;15.446;2023-06-22T04:55:31;20.80;99.90
19279;DHT22;9773;47.062;15.446;2023-06-22T04:57:57;20.90;99.90
19279;DHT22;9773;47.062;15.446;2023-06-22T05:00:30;21.00;99.90
19279;DHT22;9773;47.062;15.446;2023-06-22T05:02:56;21.00;99.90
19279;DHT22;9773;47.062;15.446;2023-06-22T05:05:26;21.10;99.90
19279;DHT22;9773;47.062;15.446;2023-06-22T05:07:52;21.10;99.90
19279;DHT22;9773;47.062;15.446;2023-06-22T05:10:25;21.10;99.90
19279;DHT22;9773;47.062;15.446;2023-06-22T05:12:51;21.20;99.90
19279;DHT22;9773;47.062;15.446;2023-06-22T05:15:16;21.30;99.90
19279;DHT22;9773;47.062;15.446;2023-06-22T05:17:44;21.30;99.90
19279;DHT22;9773;47.062;15.446;2023-06-22T05:20:12;21.40;99.90
19279;DHT22;9773;47.062;15.446;2023-06-22T05:22:38;21.40;99.90
19279;DHT22;9773;47.062;15.446;2023-06-22T05:25:09;21.50;99.90
19279;DHT22;9773;47.062;15.446;2023-06-22T05:27:35;21.60;99.90
19279;DHT22;9773;47.062;15.446;2023-06-22T05:30:07;21.70;99.90
19279;DHT22;9773;47.062;15.446;2023-06-22T05:32:33;21.80;99.90
19279;DHT22;9773;47.062;15.446;2023-06-22T05:34:59;21.80;99.90
19279;DHT22;9773;47.062;15.446;2023-06-22T05:37:25;21.90;99.90
19279;DHT22;9773;47.062;15.446;2023-06-22T05:39:51;22.00;99.90
19279;DHT22;9773;47.062;15.446;2023-06-22T05:42:17;22.00;99.90
19279;DHT22;9773;47.062;15.446;2023-06-22T05:44:43;22.00;99.90
19279;DHT22;9773;47.062;15.446;2023-06-22T05:47:09;22.00;99.90
19279;DHT22;9773;47.062;15.446;2023-06-22T05:49:34;22.00;99.90
19279;DHT22;9773;47.062;15.446;2023-06-22T05:52:00;22.00;99.90
19279;DHT22;9773;47.062;15.446;2023-06-22T05:54:27;22.10;99.90
19279;DHT22;9773;47.062;15.446;2023-06-22T05:56:55;22.30;99.90
19279;DHT22;9773;47.062;15.446;2023-06-22T05:59:21;22.40;99.90
19279;DHT22;9773;47.062;15.446;2023-06-22T06:01:46;22.40;99.90
19279;DHT22;9773;47.062;15.446;2023-06-22T06:04:18;22.40;99.90
19279;DHT22;9773;47.062;15.446;2023-06-22T06:06:44;22.40;99.90
19279;DHT22;9773;47.062;15.446;2023-06-22T06:09:10;22.50;99.90
19279;DHT22;9773;47.062;15.446;2023-06-22T06:11:37;22.50;99.90
19279;DHT22;9773;47.062;15.446;2023-06-22T06:14:03;22.60;99.90
19279;DHT22;9773;47.062;15.446;2023-06-22T06:16:29;22.70;99.90
19279;DHT22;9773;47.062;15.446;2023-06-22T06:18:54;22.80;99.90
19279;DHT22;9773;47.062;15.446;2023-06-22T06:21:21;22.90;99.90
19279;DHT22;9773;47.062;15.446;2023-06-22T06:23:48;23.00;99.90
19279;DHT22;9773;47.062;15.446;2023-06-22T06:26:14;23.10;99.90
19279;DHT22;9773;47.062;15.446;2023-06-22T06:28:42;23.20;99.90
19279;DHT22;9773;47.062;15.446;2023-06-22T06:31:08;23.30;99.90
19279;DHT22;9773;47.062;15.446;2023-06-22T06:33:35;23.30;99.90
19279;DHT22;9773;47.062;15.446;2023-06-22T06:36:01;23.40;99.90
19279;DHT22;9773;47.062;15.446;2023-06-22T06:38:29;23.60;99.90
19279;DHT22;9773;47.062;15.446;2023-06-22T06:40:55;23.60;99.90
19279;DHT22;9773;47.062;15.446;2023-06-22T06:43:21;23.80;99.90
19279;DHT22;9773;47.062;15.446;2023-06-22T06:45:48;24.00;99.90
19279;DHT22;9773;47.062;15.446;2023-06-22T06:48:14;24.20;99.90
19279;DHT22;9773;47.062;15.446;2023-06-22T06:50:39;24.20;99.90
19279;DHT22;9773;47.062;15.446;2023-06-22T06:53:05;24.20;99.90
19279;DHT22;9773;47.062;15.446;2023-06-22T06:55:32;24.40;99.90
19279;DHT22;9773;47.062;15.446;2023-06-22T06:57:58;24.60;99.90
19279;DHT22;9773;47.062;15.446;2023-06-22T07:00:25;24.60;99.90
19279;DHT22;9773;47.062;15.446;2023-06-22T07:02:51;24.80;99.90
19279;DHT22;9773;47.062;15.446;2023-06-22T07:05:17;24.60;99.90
19279;DHT22;9773;47.062;15.446;2023-06-22T07:07:43;24.60;99.90
19279;DHT22;9773;47.062;15.446;2023-06-22T07:10:09;24.90;99.90
19279;DHT22;9773;47.062;15.446;2023-06-22T07:12:35;25.10;99.90
19279;DHT22;9773;47.062;15.446;2023-06-22T07:15:02;25.10;99.90
19279;DHT22;9773;47.062;15.446;2023-06-22T07:17:28;25.30;99.90
19279;DHT22;9773;47.062;15.446;2023-06-22T07:19:54;25.40;99.90
19279;DHT22;9773;47.062;15.446;2023-06-22T07:22:20;25.60;99.90
19279;DHT22;9773;47.062;15.446;2023-06-22T07:24:46;25.60;99.90
19279;DHT22;9773;47.062;15.446;2023-06-22T07:27:12;25.70;99.90
19279;DHT22;9773;47.062;15.446;2023-06-22T07:29:38;25.80;99.90
19279;DHT22;9773;47.062;15.446;2023-06-22T07:32:06;25.80;99.90
19279;DHT22;9773;47.062;15.446;2023-06-22T07:34:32;25.80;99.90
19279;DHT22;9773;47.062;15.446;2023-06-22T07:36:59;25.90;99.90
19279;DHT22;9773;47.062;15.446;2023-06-22T07:39:24;26.00;99.90
19279;DHT22;9773;47.062;15.446;2023-06-22T07:41:52;25.90;99.90
19279;DHT22;9773;47.062;15.446;2023-06-22T07:44:18;26.00;99.90
19279;DHT22;9773;47.062;15.446;2023-06-22T07:46:44;26.20;99.90
19279;DHT22;9773;47.062;15.446;2023-06-22T07:49:09;26.30;99.90
19279;DHT22;9773;47.062;15.446;2023-06-22T07:51:35;26.30;99.90
19279;DHT22;9773;47.062;15.446;2023-06-22T07:54:01;26.40;99.90
19279;DHT22;9773;47.062;15.446;2023-06-22T07:56:28;26.50;99.90
19279;DHT22;9773;47.062;15.446;2023-06-22T07:58:53;26.60;99.90
19279;DHT22;9773;47.062;15.446;2023-06-22T08:01:20;27.00;99.90
19279;DHT22;9773;47.062;15.446;2023-06-22T08:03:49;26.60;99.90
19279;DHT22;9773;47.062;15.446;2023-06-22T08:06:15;26.60;99.90
19279;DHT22;9773;47.062;15.446;2023-06-22T08:08:42;26.60;99.90
19279;DHT22;9773;47.062;15.446;2023-06-22T08:11:08;26.50;99.90
19279;DHT22;9773;47.062;15.446;2023-06-22T08:13:34;26.60;99.90
19279;DHT22;9773;47.062;15.446;2023-06-22T08:16:00;26.60;99.90
19279;DHT22;9773;47.062;15.446;2023-06-22T08:18:26;26.70;99.90
19279;DHT22;9773;47.062;15.446;2023-06-22T08:20:52;26.80;99.90
19279;DHT22;9773;47.062;15.446;2023-06-22T08:23:18;27.00;99.90
19279;DHT22;9773;47.062;15.446;2023-06-22T08:25:43;27.10;99.90
19279;DHT22;9773;47.062;15.446;2023-06-22T08:28:09;27.20;99.90
19279;DHT22;9773;47.062;15.446;2023-06-22T08:30:35;27.10;99.90
19279;DHT22;9773;47.062;15.446;2023-06-22T08:33:01;27.20;99.90
19279;DHT22;9773;47.062;15.446;2023-06-22T08:35:27;27.20;99.90
19279;DHT22;9773;47.062;15.446;2023-06-22T08:37:53;27.10;99.90
19279;DHT22;9773;47.062;15.446;2023-06-22T08:40:20;27.20;99.90
19279;DHT22;9773;47.062;15.446;2023-06-22T08:42:47;27.30;99.90
19279;DHT22;9773;47.062;15.446;2023-06-22T08:45:13;27.30;99.90
19279;DHT22;9773;47.062;15.446;2023-06-22T08:47:40;27.30;99.90
19279;DHT22;9773;47.062;15.446;2023-06-22T08:50:10;27.20;99.90
19279;DHT22;9773;47.062;15.446;2023-06-22T08:52:37;27.10;99.90
19279;DHT22;9773;47.062;15.446;2023-06-22T08:55:04;27.10;99.90
19279;DHT22;9773;47.062;15.446;2023-06-22T08:57:30;26.90;99.90
19279;DHT22;9773;47.062;15.446;2023-06-22T08:59:58;27.10;99.90
19279;DHT22;9773;47.062;15.446;2023-06-22T09:02:25;27.30;99.90
19279;DHT22;9773;47.062;15.446;2023-06-22T09:04:51;27.30;99.90
19279;DHT22;9773;47.062;15.446;2023-06-22T09:07:21;27.50;99.90
19279;DHT22;9773;47.062;15.446;2023-06-22T09:09:49;27.70;99.90
19279;DHT22;9773;47.062;15.446;2023-06-22T09:12:15;27.80;99.90
19279;DHT22;9773;47.062;15.446;2023-06-22T09:14:40;27.90;99.90
19279;DHT22;9773;47.062;15.446;2023-06-22T09:17:06;27.70;99.90
19279;DHT22;9773;47.062;15.446;2023-06-22T09:19:32;27.80;99.90
19279;DHT22;9773;47.062;15.446;2023-06-22T09:21:58;28.00;99.90
19279;DHT22;9773;47.062;15.446;2023-06-22T09:24:24;28.10;99.90
19279;DHT22;9773;47.062;15.446;2023-06-22T09:26:50;28.20;99.90
19279;DHT22;9773;47.062;15.446;2023-06-22T09:29:16;28.20;99.90
19279;DHT22;9773;47.062;15.446;2023-06-22T09:31:42;28.30;99.90
19279;DHT22;9773;47.062;15.446;2023-06-22T09:34:08;28.40;99.90
19279;DHT22;9773;47.062;15.446;2023-06-22T09:36:33;28.40;99.90
19279;DHT22;9773;47.062;15.446;2023-06-22T09:39:00;28.40;99.90
19279;DHT22;9773;47.062;15.446;2023-06-22T09:41:31;28.20;99.90
19279;DHT22;9773;47.062;15.446;2023-06-22T09:43:57;28.30;99.90
19279;DHT22;9773;47.062;15.446;2023-06-22T09:46:23;28.20;99.90
19279;DHT22;9773;47.062;15.446;2023-06-22T09:48:50;28.40;99.90
19279;DHT22;9773;47.062;15.446;2023-06-22T09:51:16;28.50;99.90
19279;DHT22;9773;47.062;15.446;2023-06-22T09:53:42;28.50;99.90
19279;DHT22;9773;47.062;15.446;2023-06-22T09:56:09;28.40;99.90
19279;DHT22;9773;47.062;15.446;2023-06-22T09:58:43;28.50;99.90
19279;DHT22;9773;47.062;15.446;2023-06-22T10:01:10;28.60;99.90
19279;DHT22;9773;47.062;15.446;2023-06-22T10:03:36;28.80;99.90
19279;DHT22;9773;47.062;15.446;2023-06-22T10:06:02;28.70;99.90
19279;DHT22;9773;47.062;15.446;2023-06-22T10:08:28;28.60;99.90
19279;DHT22;9773;47.062;15.446;2023-06-22T10:10:54;28.60;99.90
19279;DHT22;9773;47.062;15.446;2023-06-22T10:13:19;28.60;99.90
19279;DHT22;9773;47.062;15.446;2023-06-22T10:15:45;28.70;99.90
19279;DHT22;9773;47.062;15.446;2023-06-22T10:18:18;28.80;99.90
19279;DHT22;9773;47.062;15.446;2023-06-22T10:20:48;28.90;99.90
19279;DHT22;9773;47.062;15.446;2023-06-22T10:23:15;29.00;99.90
19279;DHT22;9773;47.062;15.446;2023-06-22T10:25:41;29.00;99.90
19279;DHT22;9773;47.062;15.446;2023-06-22T10:28:07;29.10;99.90
19279;DHT22;9773;47.062;15.446;2023-06-22T10:30:32;29.10;99.90
19279;DHT22;9773;47.062;15.446;2023-06-22T10:32:58;29.10;99.90
19279;DHT22;9773;47.062;15.446;2023-06-22T10:35:24;29.00;99.90
19279;DHT22;9773;47.062;15.446;2023-06-22T10:37:50;29.10;99.90
19279;DHT22;9773;47.062;15.446;2023-06-22T10:40:17;29.10;99.90
19279;DHT22;9773;47.062;15.446;2023-06-22T10:42:44;29.20;99.90
19279;DHT22;9773;47.062;15.446;2023-06-22T10:45:10;29.20;99.90
19279;DHT22;9773;47.062;15.446;2023-06-22T10:47:36;29.30;99.90
19279;DHT22;9773;47.062;15.446;2023-06-22T10:50:03;29.30;99.90
19279;DHT22;9773;47.062;15.446;2023-06-22T10:52:29;29.40;99.90
19279;DHT22;9773;47.062;15.446;2023-06-22T10:54:55;29.40;99.90
19279;DHT22;9773;47.062;15.446;2023-06-22T10:57:21;29.50;99.90
19279;DHT22;9773;47.062;15.446;2023-06-22T10:59:47;29.50;99.90
19279;DHT22;9773;47.062;15.446;2023-06-22T11:02:13;29.30;99.90
19279;DHT22;9773;47.062;15.446;2023-06-22T11:04:38;29.30;99.90
19279;DHT22;9773;47.062;15.446;2023-06-22T11:07:04;29.20;99.90
19279;DHT22;9773;47.062;15.446;2023-06-22T11:09:30;29.20;99.90
19279;DHT22;9773;47.062;15.446;2023-06-22T11:11:57;29.30;99.90
19279;DHT22;9773;47.062;15.446;2023-06-22T11:14:25;29.50;99.90
19279;DHT22;9773;47.062;15.446;2023-06-22T11:16:51;29.60;99.90
19279;DHT22;9773;47.062;15.446;2023-06-22T11:19:17;29.60;99.90
19279;DHT22;9773;47.062;15.446;2023-06-22T11:21:42;29.60;99.90
19279;DHT22;9773;47.062;15.446;2023-06-22T11:24:08;29.60;99.90
19279;DHT22;9773;47.062;15.446;2023-06-22T11:26:34;29.60;99.90
19279;DHT22;9773;47.062;15.446;2023-06-22T11:29:00;29.60;99.90
19279;DHT22;9773;47.062;15.446;2023-06-22T11:31:26;29.50;99.90
19279;DHT22;9773;47.062;15.446;2023-06-22T11:33:52;29.40;99.90
19279;DHT22;9773;47.062;15.446;2023-06-22T11:36:18;29.40;99.90
19279;DHT22;9773;47.062;15.446;2023-06-22T11:38:44;29.40;99.90
19279;DHT22;9773;47.062;15.446;2023-06-22T11:41:10;29.60;99.90
19279;DHT22;9773;47.062;15.446;2023-06-22T11:43:36;29.70;99.90
19279;DHT22;9773;47.062;15.446;2023-06-22T11:46:03;29.90;99.90
19279;DHT22;9773;47.062;15.446;2023-06-22T11:48:29;30.00;99.90
19279;DHT22;9773;47.062;15.446;2023-06-22T11:50:55;30.10;99.90
19279;DHT22;9773;47.062;15.446;2023-06-22T11:53:23;30.20;99.90
19279;DHT22;9773;47.062;15.446;2023-06-22T11:55:49;30.00;99.90
19279;DHT22;9773;47.062;15.446;2023-06-22T11:58:15;30.00;99.90
19279;DHT22;9773;47.062;15.446;2023-06-22T12:00:41;30.10;99.90
19279;DHT22;9773;47.062;15.446;2023-06-22T12:03:07;30.10;99.90
19279;DHT22;9773;47.062;15.446;2023-06-22T12:05:33;30.00;99.90
19279;DHT22;9773;47.062;15.446;2023-06-22T12:07:59;30.00;99.90
19279;DHT22;9773;47.062;15.446;2023-06-22T12:10:27;30.00;99.90
19279;DHT22;9773;47.062;15.446;2023-06-22T12:12:56;30.20;99.90
19279;DHT22;9773;47.062;15.446;2023-06-22T12:15:26;30.30;99.90
19279;DHT22;9773;47.062;15.446;2023-06-22T12:17:51;30.40;99.90
19279;DHT22;9773;47.062;15.446;2023-06-22T12:20:17;30.50;99.90
19279;DHT22;9773;47.062;15.446;2023-06-22T12:22:44;30.50;99.90
19279;DHT22;9773;47.062;15.446;2023-06-22T12:25:10;30.50;99.90
19279;DHT22;9773;47.062;15.446;2023-06-22T12:27:36;30.50;99.90
19279;DHT22;9773;47.062;15.446;2023-06-22T12:30:03;30.50;99.90
19279;DHT22;9773;47.062;15.446;2023-06-22T12:32:29;30.50;99.90
19279;DHT22;9773;47.062;15.446;2023-06-22T12:34:56;30.50;99.90
19279;DHT22;9773;47.062;15.446;2023-06-22T12:37:22;30.60;99.90
19279;DHT22;9773;47.062;15.446;2023-06-22T12:39:48;31.50;99.90
19279;DHT22;9773;47.062;15.446;2023-06-22T12:42:14;30.60;99.90
19279;DHT22;9773;47.062;15.446;2023-06-22T12:44:40;30.70;99.90
19279;DHT22;9773;47.062;15.446;2023-06-22T12:47:06;30.70;99.90
19279;DHT22;9773;47.062;15.446;2023-06-22T12:49:34;30.80;99.90
19279;DHT22;9773;47.062;15.446;2023-06-22T12:52:01;30.80;99.90
19279;DHT22;9773;47.062;15.446;2023-06-22T12:54:26;30.70;99.90
19279;DHT22;9773;47.062;15.446;2023-06-22T12:56:53;30.80;99.90
19279;DHT22;9773;47.062;15.446;2023-06-22T12:59:19;30.80;99.90
19279;DHT22;9773;47.062;15.446;2023-06-22T13:01:45;30.80;99.90
19279;DHT22;9773;47.062;15.446;2023-06-22T13:04:11;30.90;99.90
19279;DHT22;9773;47.062;15.446;2023-06-22T13:06:46;31.00;99.90
19279;DHT22;9773;47.062;15.446;2023-06-22T13:09:15;31.00;99.90
19279;DHT22;9773;47.062;15.446;2023-06-22T13:11:42;31.00;99.90
19279;DHT22;9773;47.062;15.446;2023-06-22T13:14:08;31.10;99.90
19279;DHT22;9773;47.062;15.446;2023-06-22T13:16:34;31.10;99.90
19279;DHT22;9773;47.062;15.446;2023-06-22T13:18:59;31.10;99.90
19279;DHT22;9773;47.062;15.446;2023-06-22T13:21:25;31.10;99.90
19279;DHT22;9773;47.062;15.446;2023-06-22T13:23:51;31.20;99.90
19279;DHT22;9773;47.062;15.446;2023-06-22T13:26:17;31.00;99.90
19279;DHT22;9773;47.062;15.446;2023-06-22T13:28:43;31.10;99.90
19279;DHT22;9773;47.062;15.446;2023-06-22T13:31:08;31.10;99.90
19279;DHT22;9773;47.062;15.446;2023-06-22T13:33:34;31.20;99.90
19279;DHT22;9773;47.062;15.446;2023-06-22T13:36:00;31.30;99.90
19279;DHT22;9773;47.062;15.446;2023-06-22T13:38:26;31.30;99.90
19279;DHT22;9773;47.062;15.446;2023-06-22T13:40:52;31.50;99.90
19279;DHT22;9773;47.062;15.446;2023-06-22T13:43:18;31.40;99.90
19279;DHT22;9773;47.062;15.446;2023-06-22T13:45:44;31.40;99.90
19279;DHT22;9773;47.062;15.446;2023-06-22T13:48:10;31.50;99.90
19279;DHT22;9773;47.062;15.446;2023-06-22T13:50:36;31.60;99.90
19279;DHT22;9773;47.062;15.446;2023-06-22T13:53:01;31.50;99.90
19279;DHT22;9773;47.062;15.446;2023-06-22T13:55:27;31.40;99.90
19279;DHT22;9773;47.062;15.446;2023-06-22T13:57:53;31.40;99.90
19279;DHT22;9773;47.062;15.446;2023-06-22T14:00:19;31.50;99.90
19279;DHT22;9773;47.062;15.446;2023-06-22T14:02:45;31.40;99.90
19279;DHT22;9773;47.062;15.446;2023-06-22T14:05:10;31.50;99.90
19279;DHT22;9773;47.062;15.446;2023-06-22T14:07:36;31.50;99.90
19279;DHT22;9773;47.062;15.446;2023-06-22T14:10:03;31.60;99.90
19279;DHT22;9773;47.062;15.446;2023-06-22T14:12:29;31.50;99.90
19279;DHT22;9773;47.062;15.446;2023-06-22T14:14:55;31.60;99.90
19279;DHT22;9773;47.062;15.446;2023-06-22T14:17:21;31.70;99.90
19279;DHT22;9773;47.062;15.446;2023-06-22T14:19:51;31.70;99.90
19279;DHT22;9773;47.062;15.446;2023-06-22T14:22:21;31.70;99.90
19279;DHT22;9773;47.062;15.446;2023-06-22T14:24:47;31.70;99.90
19279;DHT22;9773;47.062;15.446;2023-06-22T14:27:14;31.70;99.90
19279;DHT22;9773;47.062;15.446;2023-06-22T14:29:40;31.80;99.90
19279;DHT22;9773;47.062;15.446;2023-06-22T14:32:06;31.70;99.90
19279;DHT22;9773;47.062;15.446;2023-06-22T14:34:33;31.80;99.90
19279;DHT22;9773;47.062;15.446;2023-06-22T14:37:01;31.90;99.90
19279;DHT22;9773;47.062;15.446;2023-06-22T14:39:27;32.00;99.90
19279;DHT22;9773;47.062;15.446;2023-06-22T14:41:53;31.90;99.70
19279;DHT22;9773;47.062;15.446;2023-06-22T14:44:19;32.10;99.80
19279;DHT22;9773;47.062;15.446;2023-06-22T14:46:45;32.10;99.60
19279;DHT22;9773;47.062;15.446;2023-06-22T14:49:10;32.00;99.70
19279;DHT22;9773;47.062;15.446;2023-06-22T14:51:36;32.10;99.90
19279;DHT22;9773;47.062;15.446;2023-06-22T14:54:02;32.10;99.90
19279;DHT22;9773;47.062;15.446;2023-06-22T14:56:28;32.30;99.90
19279;DHT22;9773;47.062;15.446;2023-06-22T14:58:53;32.40;99.80
19279;DHT22;9773;47.062;15.446;2023-06-22T15:01:19;32.40;99.60
19279;DHT22;9773;47.062;15.446;2023-06-22T15:03:45;32.50;99.40
19279;DHT22;9773;47.062;15.446;2023-06-22T15:06:11;32.60;99.10
19279;DHT22;9773;47.062;15.446;2023-06-22T15:08:37;32.80;99.10
19279;DHT22;9773;47.062;15.446;2023-06-22T15:11:04;33.10;98.50
19279;DHT22;9773;47.062;15.446;2023-06-22T15:13:31;33.90;98.00
19279;DHT22;9773;47.062;15.446;2023-06-22T15:16:00;34.30;97.60
19279;DHT22;9773;47.062;15.446;2023-06-22T15:18:27;34.30;97.00
19279;DHT22;9773;47.062;15.446;2023-06-22T15:20:53;33.80;97.30
19279;DHT22;9773;47.062;15.446;2023-06-22T15:23:18;33.40;97.70
19279;DHT22;9773;47.062;15.446;2023-06-22T15:25:44;33.20;98.00
19279;DHT22;9773;47.062;15.446;2023-06-22T15:28:11;33.00;98.40
19279;DHT22;9773;47.062;15.446;2023-06-22T15:30:37;32.80;98.60
19279;DHT22;9773;47.062;15.446;2023-06-22T15:33:03;32.50;98.90
19279;DHT22;9773;47.062;15.446;2023-06-22T15:35:29;32.50;98.90
19279;DHT22;9773;47.062;15.446;2023-06-22T15:37:54;32.30;99.30